Terminal Aerodrome Forecast
Issued by NWS Missoula, MT

Home | Current Version | Previous Version | Text Only | Print | Product List | Glossary On
Versions: 1 2 3 4 5 6 7 8 9 10 11 12 13 14 15 16 17 18
000
FTUS45 KMSO 212338
TAFGPI
TAF
KGPI 212338Z 2200/2224 22005KT 6SM -RA SCT025 OVC040
     FM220100 VRB04KT 4SM -RA BR SCT010 OVC030
     FM220400 17005KT 3SM RA BR SCT005 OVC020
     FM220900 VRB05KT 2SM -RA BR SCT004 OVC010
     FM221500 VRB03KT 5SM -RA BR SCT010 BKN020=

USA.gov is the U.S. government's official web portal to all federal, state and local government web resources and services.